Time;durP1;ratioP1;P1;durP2;ratioP2;P2;SDS_P1;SDS_P2;PMS_P1;PMS_P2;Temp;Humidity;BMP_temperature;BMP_pressure;BME280_temperature;BME280_humidity;BME280_pressure;Samples;Min_cycle;Max_cycle;Signal;HPM_P1;HPM_P2
2023/09/26 00:00:14;;;;;;;9.13;6.20;;;12.40;97.20;;;;;;4954214;28;20027;-81
2023/09/26 00:02:40;;;;;;;10.57;5.32;;;12.30;97.30;;;;;;4953968;28;20028;-81
2023/09/26 00:05:08;;;;;;;11.10;7.03;;;12.30;97.40;;;;;;4937262;29;20432;-81
2023/09/26 00:07:36;;;;;;;9.05;5.80;;;12.40;97.50;;;;;;4954094;28;20019;-80
2023/09/26 00:10:03;;;;;;;7.40;5.75;;;12.40;97.50;;;;;;4936984;29;20026;-81
2023/09/26 00:12:28;;;;;;;11.77;5.53;;;12.40;97.50;;;;;;4937051;29;20404;-81
2023/09/26 00:14:54;;;;;;;10.05;6.38;;;12.40;97.60;;;;;;4952993;28;20042;-81
2023/09/26 00:17:20;;;;;;;7.82;5.78;;;12.40;97.60;;;;;;4956040;28;20015;-82
2023/09/26 00:19:46;;;;;;;10.32;6.72;;;12.40;97.50;;;;;;4961544;28;20031;-79
2023/09/26 00:22:11;;;;;;;9.48;5.90;;;12.30;97.50;;;;;;4962319;28;20054;-82
2023/09/26 00:24:37;;;;;;;15.00;5.55;;;12.30;97.60;;;;;;4962694;28;20024;-81
2023/09/26 00:27:03;;;;;;;7.47;5.55;;;12.20;97.60;;;;;;4964683;28;20041;-80
2023/09/26 00:29:31;;;;;;;8.57;5.18;;;12.20;97.90;;;;;;4958423;28;20075;-80
2023/09/26 00:31:59;;;;;;;10.13;6.43;;;12.20;97.90;;;;;;4954564;29;20433;-80
2023/09/26 00:34:25;;;;;;;8.68;6.03;;;12.30;98.00;;;;;;4955880;29;20031;-80
2023/09/26 00:36:51;;;;;;;7.95;6.20;;;12.20;97.90;;;;;;4971253;28;20034;-81
2023/09/26 00:39:19;;;;;;;9.90;6.35;;;12.20;97.90;;;;;;4939961;29;20031;-81
2023/09/26 00:41:44;;;;;;;11.90;6.97;;;12.20;98.10;;;;;;4954355;28;20039;-81
2023/09/26 00:44:12;;;;;;;8.73;6.28;;;12.20;98.10;;;;;;4952946;29;20074;-82
2023/09/26 00:46:41;;;;;;;10.35;6.53;;;12.20;98.10;;;;;;4955398;28;20078;-81
2023/09/26 00:49:07;;;;;;;10.15;6.90;;;12.20;98.10;;;;;;4964263;29;20051;-81
2023/09/26 00:51:34;;;;;;;15.27;7.00;;;12.10;98.10;;;;;;4963278;29;20077;-82
2023/09/26 00:54:02;;;;;;;12.30;6.45;;;12.10;98.20;;;;;;4957137;29;20035;-80
2023/09/26 00:56:28;;;;;;;;;;;12.10;98.20;;;;;;4957374;28;20058;-81
2023/09/26 00:58:54;;;;;;;12.52;6.57;;;12.10;97.90;;;;;;4956809;29;20001;-81
2023/09/26 01:01:24;;;;;;;12.02;5.75;;;12.10;98.20;;;;;;4957021;29;20449;-82
2023/09/26 01:03:50;;;;;;;9.65;5.53;;;12.10;98.30;;;;;;4956564;29;20011;-83
2023/09/26 01:06:16;;;;;;;14.70;6.20;;;12.00;98.40;;;;;;4939968;29;20027;-81
2023/09/26 01:08:42;;;;;;;10.18;6.30;;;12.10;98.50;;;;;;4956698;28;20026;-81
2023/09/26 01:11:08;;;;;;;10.40;5.82;;;12.00;98.50;;;;;;4955324;29;20502;-81
2023/09/26 01:13:34;;;;;;;13.93;7.13;;;12.10;98.70;;;;;;4956614;28;20054;-81
2023/09/26 01:16:16;;;;;;;11.32;6.88;;;12.10;98.70;;;;;;4939169;29;20027;-81
2023/09/26 01:18:42;;;;;;;8.63;6.72;;;12.00;98.70;;;;;;4939711;29;20087;-81
2023/09/26 01:21:08;;;;;;;13.27;6.65;;;12.00;98.70;;;;;;4940160;29;20034;-80
2023/09/26 01:23:36;;;;;;;10.98;6.15;;;12.00;98.80;;;;;;4942592;29;20067;-80
2023/09/26 01:26:02;;;;;;;10.48;6.25;;;11.90;98.90;;;;;;4940458;29;20481;-80
2023/09/26 01:28:29;;;;;;;8.77;5.90;;;11.90;99.00;;;;;;4956644;29;20450;-81
2023/09/26 01:30:54;;;;;;;9.80;6.30;;;12.00;98.90;;;;;;4956446;29;20402;-81
2023/09/26 01:33:21;;;;;;;8.68;5.78;;;12.00;98.90;;;;;;4956314;29;20031;-80
2023/09/26 01:35:51;;;;;;;16.88;7.00;;;12.00;99.10;;;;;;4939214;29;20492;-80
2023/09/26 01:38:21;;;;;;;9.27;5.85;;;12.00;98.80;;;;;;4956509;29;20434;-79
2023/09/26 01:40:47;;;;;;;8.77;6.30;;;11.90;98.90;;;;;;4956232;29;20544;-80
2023/09/26 01:43:13;;;;;;;9.20;6.05;;;11.90;98.90;;;;;;4955960;28;20023;-80
2023/09/26 01:45:39;;;;;;;8.32;5.47;;;11.90;98.90;;;;;;4938183;29;20097;-80
2023/09/26 01:48:06;;;;;;;10.52;6.72;;;11.90;99.00;;;;;;4956273;29;20019;-80
2023/09/26 01:50:34;;;;;;;12.90;6.45;;;11.90;99.00;;;;;;4939141;29;20150;-80
2023/09/26 01:53:00;;;;;;;11.73;6.53;;;11.90;99.00;;;;;;4938872;28;20050;-81
2023/09/26 01:55:26;;;;;;;9.93;5.72;;;11.90;99.00;;;;;;4939147;29;20039;-80
2023/09/26 01:57:52;;;;;;;9.52;6.13;;;11.80;99.00;;;;;;4955194;28;20019;-81
2023/09/26 02:00:19;;;;;;;7.80;6.00;;;11.80;99.10;;;;;;4955968;29;20035;-81
2023/09/26 02:02:46;;;;;;;;;;;11.80;99.40;;;;;;4955415;28;20036;-81
2023/09/26 02:05:15;;;;;;;11.35;6.80;;;11.80;98.90;;;;;;4956128;28;20078;-80
2023/09/26 02:07:40;;;;;;;13.88;7.45;;;11.70;99.10;;;;;;4956167;29;20023;-80
2023/09/26 02:10:07;;;;;;;8.15;6.60;;;11.70;99.20;;;;;;4956070;29;20031;-82
2023/09/26 02:12:35;;;;;;;13.93;6.50;;;11.70;99.40;;;;;;4956101;29;20438;-82
2023/09/26 02:15:04;;;;;;;15.30;7.38;;;11.70;99.40;;;;;;4938627;29;20547;-81
2023/09/26 02:17:33;;;;;;;7.60;5.93;;;11.70;99.50;;;;;;4938864;29;20023;-82
2023/09/26 02:19:59;;;;;;;10.50;6.88;;;11.70;99.60;;;;;;4956360;29;20023;-81
2023/09/26 02:22:25;;;;;;;12.57;6.80;;;11.70;99.60;;;;;;4939245;29;20378;-81
2023/09/26 02:24:52;;;;;;;12.85;7.65;;;11.60;99.60;;;;;;4954663;29;20052;-82
2023/09/26 02:27:17;;;;;;;10.25;6.97;;;11.60;99.70;;;;;;4944295;29;20024;-82
2023/09/26 02:29:44;;;;;;;10.63;6.80;;;11.60;99.80;;;;;;4942582;29;20062;-82
2023/09/26 02:32:10;;;;;;;11.43;6.38;;;11.60;99.90;;;;;;4956339;29;20023;-81
2023/09/26 02:34:36;;;;;;;12.85;7.15;;;11.70;99.90;;;;;;4955875;29;20110;-81
2023/09/26 02:37:02;;;;;;;11.10;6.60;;;11.60;99.90;;;;;;4941982;29;20485;-82
2023/09/26 02:39:28;;;;;;;10.98;6.90;;;11.60;99.90;;;;;;4960326;28;20118;-81
2023/09/26 02:41:54;;;;;;;10.68;7.10;;;11.60;99.90;;;;;;4939893;29;20023;-81
2023/09/26 02:44:20;;;;;;;10.88;7.05;;;11.60;99.90;;;;;;4956278;29;20086;-83
2023/09/26 02:46:46;;;;;;;15.27;8.02;;;11.60;99.90;;;;;;4956259;29;20481;-81
2023/09/26 02:49:12;;;;;;;12.63;6.35;;;11.60;99.90;;;;;;4955898;29;20028;-82
2023/09/26 02:51:37;;;;;;;13.30;6.80;;;11.60;99.90;;;;;;4938169;29;20465;-82
2023/09/26 02:54:03;;;;;;;10.60;7.60;;;11.60;99.90;;;;;;4938209;29;20596;-82
2023/09/26 02:56:30;;;;;;;13.73;8.90;;;11.70;99.90;;;;;;4955185;28;20024;-83
2023/09/26 02:58:56;;;;;;;17.80;8.57;;;11.60;99.90;;;;;;4954839;28;20148;-82
2023/09/26 03:01:22;;;;;;;13.27;7.60;;;11.60;99.90;;;;;;4954624;29;20110;-82
2023/09/26 03:03:48;;;;;;;14.13;8.40;;;11.50;99.90;;;;;;4954898;28;20118;-82
2023/09/26 03:06:14;;;;;;;12.03;7.40;;;11.50;99.90;;;;;;4955341;28;20031;-83
2023/09/26 03:08:40;;;;;;;15.48;8.07;;;11.50;99.90;;;;;;4938058;28;20075;-82
2023/09/26 03:11:06;;;;;;;10.75;7.68;;;11.50;99.90;;;;;;4937986;29;20492;-81
2023/09/26 03:13:35;;;;;;;11.55;7.25;;;11.50;99.90;;;;;;4961718;28;20039;-83
2023/09/26 03:16:01;;;;;;;11.35;7.40;;;11.50;99.90;;;;;;4955274;29;20023;-82
2023/09/26 03:18:27;;;;;;;13.25;7.80;;;11.50;99.90;;;;;;4954812;28;20028;-81
2023/09/26 03:20:54;;;;;;;19.55;8.40;;;11.50;99.90;;;;;;4954898;28;20029;-82
2023/09/26 03:23:24;;;;;;;11.07;7.75;;;11.50;99.90;;;;;;4954889;28;20030;-80
2023/09/26 03:25:50;;;;;;;12.32;8.35;;;11.50;99.90;;;;;;4955120;29;20536;-80
2023/09/26 03:28:16;;;;;;;11.65;7.45;;;11.50;99.90;;;;;;4940035;29;20027;-79
2023/09/26 03:30:43;;;;;;;13.98;7.82;;;11.40;99.90;;;;;;4935916;29;20055;-80
2023/09/26 03:33:10;;;;;;;9.95;7.25;;;11.50;99.90;;;;;;4954283;29;20046;-80
2023/09/26 03:35:36;;;;;;;12.73;7.80;;;11.50;99.90;;;;;;4954208;29;20055;-81
2023/09/26 03:38:02;;;;;;;14.60;8.23;;;11.60;99.90;;;;;;4937507;29;20054;-80
2023/09/26 03:40:28;;;;;;;18.73;8.25;;;11.60;99.90;;;;;;4937064;29;20066;-80
2023/09/26 03:42:54;;;;;;;16.20;7.95;;;11.60;99.90;;;;;;4937095;29;20034;-80
2023/09/26 03:45:22;;;;;;;11.57;7.88;;;11.60;99.90;;;;;;4937053;29;20126;-81
2023/09/26 03:47:48;;;;;;;23.75;8.40;;;11.70;99.90;;;;;;4954192;28;20028;-80
2023/09/26 03:50:14;;;;;;;16.75;7.65;;;11.70;99.90;;;;;;4954133;29;20031;-81
2023/09/26 03:52:40;;;;;;;10.23;7.25;;;11.70;99.90;;;;;;4937458;29;20114;-81
2023/09/26 03:55:06;;;;;;;15.82;9.00;;;11.80;99.90;;;;;;4937244;29;20500;-80
2023/09/26 03:57:33;;;;;;;12.80;8.15;;;11.80;99.90;;;;;;4955126;29;20034;-80
2023/09/26 04:00:00;;;;;;;10.43;7.88;;;11.90;99.90;;;;;;4945450;29;20038;-80
2023/09/26 04:02:25;;;;;;;9.18;7.50;;;12.00;99.90;;;;;;4955769;29;20107;-82
2023/09/26 04:04:51;;;;;;;12.77;7.90;;;12.10;99.90;;;;;;4955235;28;20110;-82
2023/09/26 04:07:17;;;;;;;10.07;7.15;;;12.20;99.90;;;;;;4965594;28;20015;-82
2023/09/26 04:09:43;;;;;;;15.05;8.45;;;12.50;99.90;;;;;;4954627;29;20079;-82
2023/09/26 04:12:09;;;;;;;9.75;7.63;;;12.80;99.70;;;;;;4939038;29;20377;-79
2023/09/26 04:14:35;;;;;;;13.50;8.48;;;13.00;98.50;;;;;;4955759;29;20090;-83
2023/09/26 04:17:00;;;;;;;12.02;7.65;;;13.00;97.90;;;;;;4953005;28;20031;-82
2023/09/26 04:19:26;;;;;;;10.18;7.32;;;13.00;97.90;;;;;;4953810;29;20039;-83
2023/09/26 04:21:55;;;;;;;11.55;8.82;;;12.90;98.00;;;;;;4941728;29;20026;-82
2023/09/26 04:24:24;;;;;;;15.10;8.68;;;12.90;97.80;;;;;;4953889;28;20027;-83
2023/09/26 04:26:49;;;;;;;15.70;8.50;;;12.80;97.80;;;;;;4953057;29;20027;-82
2023/09/26 04:29:15;;;;;;;16.10;8.50;;;12.80;97.80;;;;;;4936072;29;20507;-83
2023/09/26 04:31:41;;;;;;;12.13;7.90;;;12.80;97.70;;;;;;4953158;29;20027;-82
2023/09/26 04:34:07;;;;;;;13.57;8.95;;;12.80;97.70;;;;;;4953891;28;20031;-82
2023/09/26 04:36:33;;;;;;;13.23;8.63;;;12.80;97.50;;;;;;4953486;28;20031;-81
2023/09/26 04:39:00;;;;;;;11.75;8.80;;;12.80;97.50;;;;;;4954230;29;20055;-81
2023/09/26 04:41:26;;;;;;;17.05;9.07;;;12.90;97.90;;;;;;4954143;29;20031;-83
2023/09/26 04:43:52;;;;;;;14.52;8.25;;;12.80;97.50;;;;;;4937214;29;20373;-82
2023/09/26 04:46:18;;;;;;;14.32;8.50;;;12.80;97.20;;;;;;4936690;29;20031;-82
2023/09/26 04:48:44;;;;;;;15.65;8.48;;;12.90;97.20;;;;;;4954243;29;20032;-81
2023/09/26 04:51:12;;;;;;;11.43;8.45;;;12.80;97.10;;;;;;4953827;29;20197;-82
2023/09/26 04:53:38;;;;;;;20.67;9.32;;;12.80;97.20;;;;;;4953774;29;20045;-83
2023/09/26 04:56:04;;;;;;;13.73;8.63;;;12.80;97.20;;;;;;4937141;29;20027;-81
2023/09/26 04:58:32;;;;;;;16.73;9.32;;;12.80;97.20;;;;;;4953582;29;20019;-82
2023/09/26 05:01:00;;;;;;;;;;;12.80;97.10;;;;;;4954859;29;20023;-81
2023/09/26 05:03:27;;;;;;;17.10;10.30;;;12.80;97.10;;;;;;4959687;29;19917;-80
2023/09/26 05:05:53;;;;;;;17.70;10.43;;;12.80;97.20;;;;;;4961355;29;20075;-80
2023/09/26 05:08:19;;;;;;;15.32;10.27;;;12.80;97.30;;;;;;4939265;29;20027;-80
2023/09/26 05:10:48;;;;;;;14.05;10.00;;;12.80;97.30;;;;;;4954657;29;20034;-80
2023/09/26 05:13:14;;;;;;;15.35;8.88;;;12.90;97.20;;;;;;4954116;29;20028;-81
2023/09/26 05:15:41;;;;;;;18.77;10.43;;;12.90;97.20;;;;;;4954222;29;20020;-81
2023/09/26 05:18:07;;;;;;;13.52;9.25;;;13.00;97.20;;;;;;4936610;29;20035;-82
2023/09/26 05:20:32;;;;;;;19.70;9.70;;;13.00;97.10;;;;;;4950585;29;20103;-81
2023/09/26 05:23:00;;;;;;;17.73;10.43;;;13.00;97.40;;;;;;4943900;29;20515;-83
2023/09/26 05:25:27;;;;;;;18.42;10.25;;;13.00;97.20;;;;;;4954669;29;20045;-83
2023/09/26 05:27:52;;;;;;;20.88;9.75;;;13.10;97.10;;;;;;4954148;29;20019;-82
2023/09/26 05:30:18;;;;;;;20.67;10.63;;;13.10;97.10;;;;;;4954758;29;20516;-82
2023/09/26 05:32:44;;;;;;;20.98;10.27;;;13.20;97.00;;;;;;4960252;28;20030;-82
2023/09/26 05:35:11;;;;;;;20.30;10.95;;;13.30;96.80;;;;;;4961375;28;20460;-84
2023/09/26 05:37:38;;;;;;;16.93;10.07;;;13.30;96.70;;;;;;4957494;28;20027;-81
2023/09/26 05:40:09;;;;;;;13.82;10.82;;;13.40;96.60;;;;;;4939726;29;20552;-83
2023/09/26 05:42:39;;;;;;;19.17;10.38;;;13.40;96.30;;;;;;4940040;29;20444;-84
2023/09/26 05:45:08;;;;;;;12.20;9.27;;;13.50;96.20;;;;;;4929389;28;20267;-84
2023/09/26 05:47:37;;;;;;;18.70;9.55;;;13.60;96.00;;;;;;4956316;28;20548;-83
2023/09/26 05:50:03;;;;;;;16.08;10.40;;;13.60;95.90;;;;;;4956493;28;20023;-84
2023/09/26 05:52:29;;;;;;;12.30;9.05;;;13.60;95.70;;;;;;4939258;29;20028;-79
2023/09/26 05:54:55;;;;;;;21.63;11.23;;;13.60;95.60;;;;;;4948088;29;20046;-84
2023/09/26 05:57:21;;;;;;;20.77;10.90;;;13.60;95.50;;;;;;4961695;29;20051;-84
2023/09/26 05:59:47;;;;;;;21.63;11.35;;;13.70;95.50;;;;;;4964964;29;20015;-85
2023/09/26 06:02:16;;;;;;;50.80;19.27;;;13.70;95.30;;;;;;4973706;28;20015;-81
2023/09/26 06:04:43;;;;;;;25.38;11.27;;;13.80;95.30;;;;;;4957330;28;20027;-80
2023/09/26 06:07:09;;;;;;;20.40;9.40;;;13.80;95.20;;;;;;4956826;28;20032;-83
2023/09/26 06:09:36;;;;;;;16.63;10.45;;;13.80;95.10;;;;;;4953422;29;20131;-83
2023/09/26 06:12:04;;;;;;;14.80;10.18;;;13.90;95.00;;;;;;4957026;28;20023;-84
2023/09/26 06:14:33;;;;;;;22.58;10.50;;;13.90;94.80;;;;;;4938936;29;20040;-83
2023/09/26 06:16:59;;;;;;;16.10;10.02;;;13.90;94.70;;;;;;4957122;28;20114;-85
2023/09/26 06:19:25;;;;;;;21.17;11.00;;;14.00;94.70;;;;;;4956629;28;20441;-82
2023/09/26 06:21:50;;;;;;;198.77;52.40;;;14.00;94.60;;;;;;4956126;28;20436;-83
2023/09/26 06:24:16;;;;;;;20.00;12.18;;;14.10;94.70;;;;;;4943058;28;20090;-84
2023/09/26 06:26:42;;;;;;;25.90;13.60;;;14.10;94.60;;;;;;4965558;28;20555;-84
2023/09/26 06:29:08;;;;;;;112.55;24.25;;;14.20;94.50;;;;;;4961203;28;20094;-84
2023/09/26 06:31:34;;;;;;;21.98;11.75;;;14.20;94.40;;;;;;4956287;29;20027;-84
2023/09/26 06:34:02;;;;;;;14.45;10.38;;;14.30;94.20;;;;;;4939240;29;20035;-84
2023/09/26 06:36:31;;;;;;;51.78;14.57;;;14.40;94.00;;;;;;4939128;29;20078;-84
2023/09/26 06:38:57;;;;;;;15.65;10.88;;;14.40;93.90;;;;;;4938718;29;20035;-83
2023/09/26 06:41:24;;;;;;;21.90;11.00;;;14.40;93.90;;;;;;4956859;29;20020;-84
2023/09/26 06:43:49;;;;;;;19.02;10.13;;;14.50;93.80;;;;;;4940436;29;20031;-83
2023/09/26 06:46:15;;;;;;;24.33;10.73;;;14.60;93.60;;;;;;4956567;29;20015;-84
2023/09/26 06:48:44;;;;;;;19.42;10.02;;;14.60;93.50;;;;;;4938867;29;20177;-84
2023/09/26 06:51:11;;;;;;;18.02;11.15;;;14.60;93.60;;;;;;4955899;29;20046;-84
2023/09/26 06:53:37;;;;;;;122.43;41.87;;;14.80;93.20;;;;;;4956046;29;20034;-84
2023/09/26 06:56:05;;;;;;;24.95;15.60;;;14.80;93.20;;;;;;4956215;29;20031;-85
2023/09/26 06:58:32;;;;;;;15.48;8.05;;;14.90;92.90;;;;;;4938976;29;20031;-86
2023/09/26 07:00:58;;;;;;;66.57;21.10;;;15.00;92.60;;;;;;4956060;29;20385;-84
2023/09/26 07:03:29;;;;;;;13.07;7.43;;;15.00;92.50;;;;;;4938603;29;20634;-84
2023/09/26 07:05:56;;;;;;;20.55;10.20;;;15.10;92.30;;;;;;4958785;29;20035;-83
2023/09/26 07:08:22;;;;;;;16.77;9.33;;;15.20;92.20;;;;;;4969971;29;20059;-85
2023/09/26 07:10:50;;;;;;;30.10;10.30;;;15.30;91.80;;;;;;4959850;29;20353;-86
2023/09/26 07:13:17;;;;;;;18.00;9.70;;;15.40;91.80;;;;;;4955570;29;20063;-85
2023/09/26 07:15:43;;;;;;;21.87;9.83;;;15.50;91.80;;;;;;4955759;28;20476;-87
2023/09/26 07:18:13;;;;;;;10.70;6.10;;;16.10;91.50;;;;;;4938001;29;20273;-84
2023/09/26 07:20:47;;;;;;;52.80;13.75;;;17.70;89.70;;;;;;4938400;29;20135;-84
2023/09/26 07:23:14;;;;;;;18.50;8.02;;;19.80;83.20;;;;;;4938187;29;20067;-84
2023/09/26 07:25:40;;;;;;;13.02;7.22;;;21.90;75.60;;;;;;4956030;29;20433;-84
2023/09/26 07:28:06;;;;;;;9.38;6.40;;;23.90;68.70;;;;;;4939194;29;20119;-84
2023/09/26 07:30:32;;;;;;;15.95;5.63;;;25.30;62.50;;;;;;4955446;28;20141;-84
2023/09/26 07:32:58;;;;;;;17.20;5.97;;;26.50;58.80;;;;;;4938285;29;20501;-86
2023/09/26 07:35:25;;;;;;;14.48;6.53;;;28.60;58.90;;;;;;4957635;29;20652;-84
2023/09/26 07:37:51;;;;;;;7.13;4.30;;;28.70;52.40;;;;;;4944041;29;20139;-84
2023/09/26 07:40:17;;;;;;;40.38;7.20;;;29.50;50.10;;;;;;4958615;29;20090;-85
2023/09/26 07:42:43;;;;;;;11.83;5.33;;;30.00;48.70;;;;;;4938546;29;20656;-84
2023/09/26 07:45:09;;;;;;;13.47;6.20;;;30.30;47.00;;;;;;4956164;29;20495;-86
2023/09/26 07:47:35;;;;;;;10.48;5.88;;;30.40;45.80;;;;;;4939265;29;20035;-85
2023/09/26 07:50:01;;;;;;;26.20;9.60;;;29.80;45.90;;;;;;4965066;29;20091;-84
2023/09/26 07:52:27;;;;;;;14.50;5.88;;;29.40;45.20;;;;;;4967781;29;20033;-86
2023/09/26 07:54:53;;;;;;;18.70;9.87;;;28.90;46.30;;;;;;4955009;29;20093;-85
2023/09/26 07:57:20;;;;;;;18.58;7.15;;;28.40;46.70;;;;;;4954556;28;20027;-86
2023/09/26 07:59:46;;;;;;;;;;;28.40;47.00;;;;;;4955015;29;20113;-84
2023/09/26 08:02:12;;;;;;;17.08;6.85;;;29.10;49.60;;;;;;4937192;29;20332;-85
2023/09/26 08:04:38;;;;;;;12.60;5.93;;;29.80;46.10;;;;;;4955312;29;20046;-88
2023/09/26 08:07:04;;;;;;;9.93;6.03;;;30.40;44.70;;;;;;4955118;29;20043;-85
2023/09/26 08:09:31;;;;;;;15.70;5.77;;;30.90;44.30;;;;;;4937731;29;20030;-83
2023/09/26 08:11:57;;;;;;;;;;;31.40;43.30;;;;;;4938185;29;20114;-85
2023/09/26 08:14:22;;;;;;;40.97;12.02;;;31.80;45.20;;;;;;4954418;29;20017;-85
2023/09/26 08:16:48;;;;;;;72.93;12.73;;;32.40;44.20;;;;;;4937570;29;20035;-85
2023/09/26 08:19:14;;;;;;;38.70;14.10;;;32.70;41.90;;;;;;4954451;29;20078;-86
2023/09/26 08:21:40;;;;;;;11.27;6.15;;;32.70;41.00;;;;;;4938441;29;20059;-84
2023/09/26 08:24:07;;;;;;;11.13;5.43;;;32.30;41.50;;;;;;4957041;29;20357;-86
2023/09/26 08:26:32;;;;;;;9.68;5.38;;;32.10;41.10;;;;;;4940516;29;20134;-85
2023/09/26 08:28:59;;;;;;;45.33;7.80;;;31.80;41.40;;;;;;4955760;28;20046;-85
2023/09/26 08:31:25;;;;;;;16.65;6.10;;;32.20;41.80;;;;;;4953305;29;20031;-85
2023/09/26 08:33:51;;;;;;;10.25;5.85;;;33.10;40.70;;;;;;4954725;29;20035;-86
2023/09/26 08:36:19;;;;;;;9.07;5.47;;;33.30;40.00;;;;;;4954823;29;20052;-86
2023/09/26 08:38:47;;;;;;;15.52;5.85;;;32.50;40.30;;;;;;4937882;29;20069;-86
2023/09/26 08:41:15;;;;;;;12.27;6.25;;;31.30;41.00;;;;;;4940569;29;20061;-84
2023/09/26 08:43:42;;;;;;;15.05;5.47;;;30.30;42.30;;;;;;4948591;29;20027;-85
2023/09/26 08:46:08;;;;;;;10.55;4.85;;;29.80;42.90;;;;;;4954455;29;20023;-85
2023/09/26 08:48:35;;;;;;;16.60;6.07;;;29.40;43.20;;;;;;4954643;29;20045;-87
2023/09/26 08:51:02;;;;;;;7.57;4.75;;;29.10;43.50;;;;;;4955599;29;20039;-86
2023/09/26 08:53:28;;;;;;;25.40;6.50;;;29.50;43.00;;;;;;4953999;29;20058;-85
2023/09/26 08:55:54;;;;;;;13.27;4.82;;;30.10;42.70;;;;;;4955450;29;20497;-86
2023/09/26 08:58:21;;;;;;;14.33;5.43;;;31.00;41.30;;;;;;4954570;29;20035;-86
2023/09/26 09:00:47;;;;;;;39.47;9.90;;;31.30;39.90;;;;;;4955125;29;20031;-87
2023/09/26 09:03:13;;;;;;;167.77;30.55;;;30.80;40.50;;;;;;4954669;29;20038;-86
2023/09/26 09:05:42;;;;;;;9.87;3.83;;;30.80;41.10;;;;;;4954664;29;20548;-84
2023/09/26 09:08:15;;;;;;;6.70;4.13;;;30.70;39.70;;;;;;4939521;29;20368;-86
2023/09/26 09:10:55;;;;;;;91.70;19.15;;;29.60;40.70;;;;;;4943862;29;20038;-87
2023/09/26 09:13:29;;;;;;;12.82;5.38;;;28.30;42.70;;;;;;4960375;29;20035;-87
2023/09/26 09:16:14;;;;;;;9.48;4.72;;;27.20;43.80;;;;;;4941790;29;20125;-87
2023/09/26 09:18:46;;;;;;;10.77;5.03;;;26.00;45.30;;;;;;4941132;29;20077;-86
2023/09/26 09:21:29;;;;;;;19.33;9.32;;;24.90;46.80;;;;;;4958367;29;20034;-85
2023/09/26 09:24:02;;;;;;;9.93;6.63;;;24.00;48.70;;;;;;4957960;29;20087;-86
2023/09/26 09:26:32;;;;;;;8.40;5.07;;;23.40;50.10;;;;;;4958704;29;20019;-87
2023/09/26 09:29:14;;;;;;;8.05;5.25;;;22.80;50.90;;;;;;4958762;29;20023;-86
2023/09/26 09:31:40;;;;;;;9.23;4.90;;;23.30;51.90;;;;;;4957967;29;20070;-84
2023/09/26 09:34:06;;;;;;;6.28;4.45;;;25.10;49.10;;;;;;4958855;29;20489;-86
2023/09/26 09:36:32;;;;;;;9.60;4.95;;;26.10;46.50;;;;;;4960401;29;20162;-87
2023/09/26 09:38:58;;;;;;;13.77;5.53;;;25.80;46.10;;;;;;4962052;29;20051;-86
2023/09/26 09:41:24;;;;;;;14.48;5.03;;;25.10;46.90;;;;;;4970481;29;20034;-86
2023/09/26 09:43:50;;;;;;;176.48;37.28;;;24.50;47.50;;;;;;4964818;29;20023;-87
2023/09/26 09:46:16;;;;;;;14.35;5.20;;;24.00;48.30;;;;;;4961946;29;20023;-85
2023/09/26 09:48:45;;;;;;;9.20;4.85;;;23.90;49.80;;;;;;4940961;29;20023;-85
2023/09/26 09:51:15;;;;;;;8.57;4.88;;;23.90;49.40;;;;;;4957991;29;20031;-86
2023/09/26 09:53:45;;;;;;;9.23;5.07;;;24.10;48.80;;;;;;4929036;29;20035;-85
2023/09/26 09:56:18;;;;;;;10.10;5.30;;;24.40;48.50;;;;;;4957474;29;20132;-85
2023/09/26 09:58:48;;;;;;;14.27;5.65;;;24.50;47.90;;;;;;4957060;29;20027;-85
2023/09/26 10:01:16;;;;;;;7.68;5.05;;;24.20;48.40;;;;;;4957456;29;20492;-86
2023/09/26 10:03:42;;;;;;;9.05;5.07;;;24.20;48.60;;;;;;4958999;29;20058;-85
2023/09/26 10:06:11;;;;;;;8.40;5.38;;;25.00;47.70;;;;;;4959212;29;20024;-88
2023/09/26 10:08:38;;;;;;;10.43;5.50;;;25.70;46.60;;;;;;4941567;29;20023;-88
2023/09/26 10:11:07;;;;;;;8.90;5.63;;;25.50;45.90;;;;;;4958055;29;20034;-87
2023/09/26 10:13:33;;;;;;;8.90;5.93;;;25.00;46.80;;;;;;4957187;29;20508;-86
2023/09/26 10:16:15;;;;;;;11.15;5.90;;;24.40;48.70;;;;;;4942725;29;20027;-86
2023/09/26 10:18:43;;;;;;;13.98;11.15;;;23.80;49.50;;;;;;4970966;28;20019;-88
2023/09/26 10:21:25;;;;;;;9.35;6.10;;;23.30;50.20;;;;;;4939293;29;20023;-86
2023/09/26 10:24:09;;;;;;;15.27;6.80;;;22.80;51.20;;;;;;4956677;29;20029;-86
2023/09/26 10:26:40;;;;;;;9.38;5.75;;;22.40;52.60;;;;;;4939358;29;20338;-84
2023/09/26 10:29:07;;;;;;;10.80;6.75;;;22.10;53.30;;;;;;4956378;29;20078;-86
2023/09/26 10:31:33;;;;;;;9.68;6.20;;;21.70;53.10;;;;;;4955839;29;20038;-86
2023/09/26 10:33:59;;;;;;;12.63;6.15;;;21.40;54.10;;;;;;4956916;29;20045;-85
2023/09/26 10:36:25;;;;;;;12.10;5.65;;;21.20;54.50;;;;;;4956714;29;20103;-87
2023/09/26 10:38:58;;;;;;;8.52;6.47;;;20.90;55.00;;;;;;4956592;29;20028;-84
2023/09/26 10:41:25;;;;;;;13.57;8.45;;;20.70;55.50;;;;;;4956088;29;20030;-86
2023/09/26 10:43:51;;;;;;;24.15;13.48;;;20.40;56.10;;;;;;4957627;29;20357;-84
2023/09/26 10:46:18;;;;;;;15.90;7.95;;;20.20;56.70;;;;;;4959846;29;20084;-87
2023/09/26 10:48:44;;;;;;;12.20;7.57;;;20.10;57.20;;;;;;4959724;29;20034;-86
2023/09/26 10:51:10;;;;;;;9.07;6.00;;;20.00;57.40;;;;;;4956195;29;20074;-85
2023/09/26 10:53:36;;;;;;;9.60;6.22;;;19.90;57.40;;;;;;4956114;29;20047;-85
2023/09/26 10:56:03;;;;;;;9.82;7.07;;;19.70;57.80;;;;;;4939078;29;20054;-85
2023/09/26 10:58:32;;;;;;;10.63;6.13;;;19.60;58.30;;;;;;4955990;29;20493;-85
2023/09/26 11:00:58;;;;;;;12.25;6.47;;;19.50;59.00;;;;;;4956225;29;20031;-87
2023/09/26 11:03:24;;;;;;;9.45;6.50;;;19.50;59.30;;;;;;4955766;29;20027;-85
2023/09/26 11:05:50;;;;;;;13.35;7.60;;;19.50;59.40;;;;;;4955538;29;20477;-88
2023/09/26 11:08:17;;;;;;;15.50;7.35;;;19.40;59.70;;;;;;4956343;29;20031;-86
2023/09/26 11:10:48;;;;;;;17.85;7.47;;;19.30;60.10;;;;;;4955936;29;20027;-87
2023/09/26 11:13:15;;;;;;;9.75;7.07;;;19.20;59.80;;;;;;4955870;29;20059;-86
2023/09/26 11:15:44;;;;;;;12.70;9.25;;;19.20;60.10;;;;;;4955617;29;20063;-86
2023/09/26 11:18:14;;;;;;;104.55;60.03;;;19.20;60.60;;;;;;4954178;29;20083;-86
2023/09/26 11:20:40;;;;;;;26.48;11.40;;;19.10;61.40;;;;;;4955402;29;20023;-86
2023/09/26 11:23:07;;;;;;;47.80;24.27;;;19.10;60.50;;;;;;4956108;29;20030;-86
2023/09/26 11:25:33;;;;;;;15.65;7.88;;;19.10;60.10;;;;;;4954808;29;20027;-88
2023/09/26 11:28:01;;;;;;;22.80;8.70;;;19.10;60.60;;;;;;4956006;29;20026;-87
2023/09/26 11:30:27;;;;;;;16.83;8.95;;;19.10;60.90;;;;;;4934034;29;20048;-87
2023/09/26 11:32:54;;;;;;;17.27;8.73;;;19.10;61.40;;;;;;4928288;29;20027;-85
2023/09/26 11:35:24;;;;;;;43.38;9.45;;;19.20;61.30;;;;;;4936142;29;20079;-84
2023/09/26 11:37:54;;;;;;;20.98;8.15;;;19.20;61.60;;;;;;4949813;29;20027;-85
2023/09/26 11:40:28;;;;;;;13.65;7.53;;;19.30;61.20;;;;;;4919159;29;20516;-87
2023/09/26 11:42:57;;;;;;;14.35;9.63;;;19.20;60.80;;;;;;4921285;29;20076;-85
2023/09/26 11:45:26;;;;;;;11.73;7.30;;;19.10;61.20;;;;;;4954899;29;20035;-86
2023/09/26 11:47:59;;;;;;;14.90;6.93;;;19.00;61.10;;;;;;4922766;29;20505;-85
2023/09/26 11:50:27;;;;;;;11.23;6.53;;;18.90;60.90;;;;;;4938204;29;20444;-86
2023/09/26 11:52:56;;;;;;;9.93;7.95;;;18.80;61.00;;;;;;4944034;29;20107;-86
2023/09/26 11:55:22;;;;;;;19.33;14.02;;;18.80;61.30;;;;;;4924311;29;20075;-87
2023/09/26 11:57:49;;;;;;;7.35;6.32;;;18.80;61.80;;;;;;4922195;29;20421;-86
2023/09/26 12:00:16;;;;;;;12.55;7.40;;;18.80;61.70;;;;;;4920725;29;20023;-86
2023/09/26 12:02:46;;;;;;;12.63;7.65;;;18.70;61.80;;;;;;4937820;29;20024;-85
2023/09/26 12:05:22;;;;;;;15.80;7.63;;;18.70;62.10;;;;;;4936700;29;20031;-84
2023/09/26 12:07:52;;;;;;;8.52;6.07;;;18.70;62.20;;;;;;4881529;29;20185;-84
2023/09/26 12:10:19;;;;;;;13.68;7.68;;;18.80;62.10;;;;;;4881209;29;20029;-85
2023/09/26 12:12:46;;;;;;;15.50;9.43;;;18.70;62.50;;;;;;4897997;29;20113;-85
2023/09/26 12:15:21;;;;;;;19.27;11.05;;;18.90;62.70;;;;;;4897213;29;20048;-85
2023/09/26 12:17:51;;;;;;;11.38;6.93;;;19.00;62.50;;;;;;4897510;29;20045;-85
2023/09/26 12:20:21;;;;;;;12.23;9.75;;;19.20;61.80;;;;;;4898976;29;20020;-86
2023/09/26 12:22:50;;;;;;;45.08;26.17;;;19.30;61.60;;;;;;4906723;29;20036;-86
2023/09/26 12:25:16;;;;;;;17.00;12.25;;;19.30;62.40;;;;;;4895427;29;20036;-84
2023/09/26 12:27:42;;;;;;;12.07;8.50;;;19.30;61.50;;;;;;4896846;29;20032;-84
2023/09/26 12:30:09;;;;;;;15.90;8.32;;;19.30;61.30;;;;;;4905535;29;20054;-86
2023/09/26 12:32:35;;;;;;;;;;;19.20;60.90;;;;;;4930951;29;20113;-85
2023/09/26 12:35:03;;;;;;;10.77;6.90;;;19.00;61.10;;;;;;4922292;29;19922;-85
2023/09/26 12:37:29;;;;;;;28.17;24.70;;;19.00;60.90;;;;;;4939122;29;20374;-86